sensor_id;sensor_type;location;lat;lon;timestamp;temperature;humidity
13569;DHT22;6856;51.460;7.158;2023-03-23T00:01:07;14.50;64.80
13569;DHT22;6856;51.460;7.158;2023-03-23T00:03:45;14.50;64.80
13569;DHT22;6856;51.460;7.158;2023-03-23T00:06:20;14.60;64.90
13569;DHT22;6856;51.460;7.158;2023-03-23T00:08:54;14.60;64.90
13569;DHT22;6856;51.460;7.158;2023-03-23T00:11:31;14.60;65.00
13569;DHT22;6856;51.460;7.158;2023-03-23T00:14:06;14.50;64.90
13569;DHT22;6856;51.460;7.158;2023-03-23T00:16:43;14.60;65.00
13569;DHT22;6856;51.460;7.158;2023-03-23T00:19:17;14.50;64.80
13569;DHT22;6856;51.460;7.158;2023-03-23T00:21:52;14.50;65.00
13569;DHT22;6856;51.460;7.158;2023-03-23T00:24:25;14.80;65.00
13569;DHT22;6856;51.460;7.158;2023-03-23T00:26:57;14.60;64.80
13569;DHT22;6856;51.460;7.158;2023-03-23T00:29:31;14.60;64.90
13569;DHT22;6856;51.460;7.158;2023-03-23T00:32:04;14.60;64.90
13569;DHT22;6856;51.460;7.158;2023-03-23T00:34:36;14.60;64.90
13569;DHT22;6856;51.460;7.158;2023-03-23T00:37:10;14.60;64.90
13569;DHT22;6856;51.460;7.158;2023-03-23T00:39:44;14.60;64.70
13569;DHT22;6856;51.460;7.158;2023-03-23T00:42:17;14.60;64.80
13569;DHT22;6856;51.460;7.158;2023-03-23T00:44:50;14.60;64.80
13569;DHT22;6856;51.460;7.158;2023-03-23T00:47:24;14.70;65.60
13569;DHT22;6856;51.460;7.158;2023-03-23T00:49:57;14.70;64.50
13569;DHT22;6856;51.460;7.158;2023-03-23T00:52:31;14.70;64.70
13569;DHT22;6856;51.460;7.158;2023-03-23T00:55:04;14.70;64.50
13569;DHT22;6856;51.460;7.158;2023-03-23T00:57:38;14.70;64.60
13569;DHT22;6856;51.460;7.158;2023-03-23T01:00:11;14.80;64.70
13569;DHT22;6856;51.460;7.158;2023-03-23T01:02:45;14.70;64.70
13569;DHT22;6856;51.460;7.158;2023-03-23T01:05:18;14.80;64.60
13569;DHT22;6856;51.460;7.158;2023-03-23T01:07:52;14.80;64.70
13569;DHT22;6856;51.460;7.158;2023-03-23T01:10:26;14.80;64.40
13569;DHT22;6856;51.460;7.158;2023-03-23T01:12:58;14.80;64.60
13569;DHT22;6856;51.460;7.158;2023-03-23T01:15:34;14.80;64.50
13569;DHT22;6856;51.460;7.158;2023-03-23T01:18:08;14.80;64.50
13569;DHT22;6856;51.460;7.158;2023-03-23T01:20:41;14.90;64.70
13569;DHT22;6856;51.460;7.158;2023-03-23T01:23:15;14.90;64.20
13569;DHT22;6856;51.460;7.158;2023-03-23T01:25:48;14.80;64.40
13569;DHT22;6856;51.460;7.158;2023-03-23T01:28:20;14.90;64.40
13569;DHT22;6856;51.460;7.158;2023-03-23T01:30:59;14.80;64.40
13569;DHT22;6856;51.460;7.158;2023-03-23T01:33:34;14.80;64.70
13569;DHT22;6856;51.460;7.158;2023-03-23T01:36:09;14.80;64.20
13569;DHT22;6856;51.460;7.158;2023-03-23T01:38:47;14.90;64.70
13569;DHT22;6856;51.460;7.158;2023-03-23T01:41:21;14.80;64.60
13569;DHT22;6856;51.460;7.158;2023-03-23T01:43:59;14.80;64.30
13569;DHT22;6856;51.460;7.158;2023-03-23T01:46:35;14.80;64.70
13569;DHT22;6856;51.460;7.158;2023-03-23T01:49:12;14.80;64.60
13569;DHT22;6856;51.460;7.158;2023-03-23T01:51:51;14.80;64.60
13569;DHT22;6856;51.460;7.158;2023-03-23T01:54:30;14.80;64.70
13569;DHT22;6856;51.460;7.158;2023-03-23T01:57:07;14.80;64.20
13569;DHT22;6856;51.460;7.158;2023-03-23T01:59:45;14.80;64.70
13569;DHT22;6856;51.460;7.158;2023-03-23T02:02:22;14.80;64.80
13569;DHT22;6856;51.460;7.158;2023-03-23T02:05:00;14.80;64.50
13569;DHT22;6856;51.460;7.158;2023-03-23T02:07:45;14.80;64.60
13569;DHT22;6856;51.460;7.158;2023-03-23T02:10:21;14.70;64.40
13569;DHT22;6856;51.460;7.158;2023-03-23T02:12:54;14.70;64.30
13569;DHT22;6856;51.460;7.158;2023-03-23T02:15:32;14.70;64.10
13569;DHT22;6856;51.460;7.158;2023-03-23T02:18:39;14.70;64.30
13569;DHT22;6856;51.460;7.158;2023-03-23T02:21:56;14.70;64.50
13569;DHT22;6856;51.460;7.158;2023-03-23T02:24:57;14.70;64.60
13569;DHT22;6856;51.460;7.158;2023-03-23T02:28:08;14.70;64.50
13569;DHT22;6856;51.460;7.158;2023-03-23T02:31:21;14.70;64.70
13569;DHT22;6856;51.460;7.158;2023-03-23T02:34:13;14.70;64.60
13569;DHT22;6856;51.460;7.158;2023-03-23T02:36:56;14.70;64.60
13569;DHT22;6856;51.460;7.158;2023-03-23T02:39:34;14.70;64.70
13569;DHT22;6856;51.460;7.158;2023-03-23T02:42:15;14.70;64.80
13569;DHT22;6856;51.460;7.158;2023-03-23T02:44:57;14.70;64.90
13569;DHT22;6856;51.460;7.158;2023-03-23T02:47:35;14.70;64.90
13569;DHT22;6856;51.460;7.158;2023-03-23T02:50:14;14.70;64.90
13569;DHT22;6856;51.460;7.158;2023-03-23T02:52:50;14.70;65.70
13569;DHT22;6856;51.460;7.158;2023-03-23T02:55:27;14.70;65.00
13569;DHT22;6856;51.460;7.158;2023-03-23T02:58:02;14.70;65.10
13569;DHT22;6856;51.460;7.158;2023-03-23T03:00:38;14.70;65.00
13569;DHT22;6856;51.460;7.158;2023-03-23T03:03:13;14.70;65.20
13569;DHT22;6856;51.460;7.158;2023-03-23T03:05:57;14.60;65.10
13569;DHT22;6856;51.460;7.158;2023-03-23T03:08:45;14.60;65.30
13569;DHT22;6856;51.460;7.158;2023-03-23T03:11:23;14.60;65.30
13569;DHT22;6856;51.460;7.158;2023-03-23T03:14:00;14.60;65.10
13569;DHT22;6856;51.460;7.158;2023-03-23T03:16:38;14.60;65.40
13569;DHT22;6856;51.460;7.158;2023-03-23T03:19:20;14.60;65.30
13569;DHT22;6856;51.460;7.158;2023-03-23T03:21:59;14.60;65.40
13569;DHT22;6856;51.460;7.158;2023-03-23T03:24:33;14.60;65.40
13569;DHT22;6856;51.460;7.158;2023-03-23T03:27:11;14.50;65.40
13569;DHT22;6856;51.460;7.158;2023-03-23T03:29:53;14.60;65.50
13569;DHT22;6856;51.460;7.158;2023-03-23T03:32:31;14.50;65.50
13569;DHT22;6856;51.460;7.158;2023-03-23T03:35:11;14.50;65.40
13569;DHT22;6856;51.460;7.158;2023-03-23T03:37:45;14.60;65.30
13569;DHT22;6856;51.460;7.158;2023-03-23T03:40:20;14.50;65.40
13569;DHT22;6856;51.460;7.158;2023-03-23T03:42:53;14.60;65.30
13569;DHT22;6856;51.460;7.158;2023-03-23T03:45:25;14.50;65.20
13569;DHT22;6856;51.460;7.158;2023-03-23T03:47:58;14.60;65.30
13569;DHT22;6856;51.460;7.158;2023-03-23T03:50:31;14.60;65.30
13569;DHT22;6856;51.460;7.158;2023-03-23T03:53:05;14.50;65.10
13569;DHT22;6856;51.460;7.158;2023-03-23T03:55:38;14.60;65.30
13569;DHT22;6856;51.460;7.158;2023-03-23T03:58:16;14.50;65.10
13569;DHT22;6856;51.460;7.158;2023-03-23T04:00:49;14.60;65.00
13569;DHT22;6856;51.460;7.158;2023-03-23T04:03:23;14.60;65.00
13569;DHT22;6856;51.460;7.158;2023-03-23T04:05:56;14.60;65.00
13569;DHT22;6856;51.460;7.158;2023-03-23T04:08:31;14.60;65.70
13569;DHT22;6856;51.460;7.158;2023-03-23T04:11:04;14.60;64.80
13569;DHT22;6856;51.460;7.158;2023-03-23T04:13:38;14.60;64.80
13569;DHT22;6856;51.460;7.158;2023-03-23T04:16:10;14.70;64.80
13569;DHT22;6856;51.460;7.158;2023-03-23T04:18:43;14.70;64.70
13569;DHT22;6856;51.460;7.158;2023-03-23T04:21:18;14.70;64.60
13569;DHT22;6856;51.460;7.158;2023-03-23T04:23:52;14.70;64.70
13569;DHT22;6856;51.460;7.158;2023-03-23T04:26:25;14.70;64.60
13569;DHT22;6856;51.460;7.158;2023-03-23T04:28:59;14.70;64.60
13569;DHT22;6856;51.460;7.158;2023-03-23T04:31:33;14.70;64.60
13569;DHT22;6856;51.460;7.158;2023-03-23T04:34:06;14.70;64.50
13569;DHT22;6856;51.460;7.158;2023-03-23T04:36:38;14.70;64.40
13569;DHT22;6856;51.460;7.158;2023-03-23T04:39:13;14.70;64.40
13569;DHT22;6856;51.460;7.158;2023-03-23T04:41:46;14.80;64.40
13569;DHT22;6856;51.460;7.158;2023-03-23T04:44:19;14.80;64.50
13569;DHT22;6856;51.460;7.158;2023-03-23T04:46:52;14.80;64.40
13569;DHT22;6856;51.460;7.158;2023-03-23T04:49:24;14.70;64.10
13569;DHT22;6856;51.460;7.158;2023-03-23T04:51:57;14.70;64.10
13569;DHT22;6856;51.460;7.158;2023-03-23T04:54:31;14.80;64.30
13569;DHT22;6856;51.460;7.158;2023-03-23T04:57:04;14.80;64.20
13569;DHT22;6856;51.460;7.158;2023-03-23T04:59:39;14.80;64.20
13569;DHT22;6856;51.460;7.158;2023-03-23T05:02:11;14.80;64.10
13569;DHT22;6856;51.460;7.158;2023-03-23T05:04:45;14.80;64.10
13569;DHT22;6856;51.460;7.158;2023-03-23T05:07:17;14.80;64.10
13569;DHT22;6856;51.460;7.158;2023-03-23T05:09:51;14.80;64.00
13569;DHT22;6856;51.460;7.158;2023-03-23T05:12:23;14.80;64.10
13569;DHT22;6856;51.460;7.158;2023-03-23T05:14:56;14.80;63.90
13569;DHT22;6856;51.460;7.158;2023-03-23T05:17:28;14.80;63.90
13569;DHT22;6856;51.460;7.158;2023-03-23T05:20:05;14.90;63.90
13569;DHT22;6856;51.460;7.158;2023-03-23T05:22:42;14.90;64.00
13569;DHT22;6856;51.460;7.158;2023-03-23T05:25:19;14.90;63.80
13569;DHT22;6856;51.460;7.158;2023-03-23T05:27:53;14.90;63.80
13569;DHT22;6856;51.460;7.158;2023-03-23T05:30:25;14.90;63.60
13569;DHT22;6856;51.460;7.158;2023-03-23T05:32:59;14.90;63.70
13569;DHT22;6856;51.460;7.158;2023-03-23T05:35:33;14.90;63.60
13569;DHT22;6856;51.460;7.158;2023-03-23T05:38:06;14.90;63.50
13569;DHT22;6856;51.460;7.158;2023-03-23T05:40:40;15.00;63.40
13569;DHT22;6856;51.460;7.158;2023-03-23T05:43:13;15.00;63.40
13569;DHT22;6856;51.460;7.158;2023-03-23T05:45:46;15.00;63.40
13569;DHT22;6856;51.460;7.158;2023-03-23T05:48:19;14.90;63.30
13569;DHT22;6856;51.460;7.158;2023-03-23T05:50:52;15.00;63.30
13569;DHT22;6856;51.460;7.158;2023-03-23T05:53:25;14.90;63.20
13569;DHT22;6856;51.460;7.158;2023-03-23T05:56:02;15.00;63.20
13569;DHT22;6856;51.460;7.158;2023-03-23T05:58:37;15.00;63.30
13569;DHT22;6856;51.460;7.158;2023-03-23T06:01:12;15.00;63.20
13569;DHT22;6856;51.460;7.158;2023-03-23T06:03:46;15.00;63.00
13569;DHT22;6856;51.460;7.158;2023-03-23T06:06:22;15.00;63.10
13569;DHT22;6856;51.460;7.158;2023-03-23T06:08:55;15.00;63.10
13569;DHT22;6856;51.460;7.158;2023-03-23T06:11:31;15.00;63.20
13569;DHT22;6856;51.460;7.158;2023-03-23T06:14:05;15.00;62.80
13569;DHT22;6856;51.460;7.158;2023-03-23T06:16:38;15.00;63.10
13569;DHT22;6856;51.460;7.158;2023-03-23T06:19:11;15.00;63.00
13569;DHT22;6856;51.460;7.158;2023-03-23T06:21:43;15.10;63.10
13569;DHT22;6856;51.460;7.158;2023-03-23T06:24:16;15.00;63.00
13569;DHT22;6856;51.460;7.158;2023-03-23T06:26:50;15.00;63.00
13569;DHT22;6856;51.460;7.158;2023-03-23T06:29:22;15.10;63.10
13569;DHT22;6856;51.460;7.158;2023-03-23T06:31:58;15.10;63.10
13569;DHT22;6856;51.460;7.158;2023-03-23T06:34:32;15.10;63.10
13569;DHT22;6856;51.460;7.158;2023-03-23T06:37:05;15.10;62.90
13569;DHT22;6856;51.460;7.158;2023-03-23T06:39:38;15.10;63.00
13569;DHT22;6856;51.460;7.158;2023-03-23T06:42:12;15.10;62.90
13569;DHT22;6856;51.460;7.158;2023-03-23T06:44:45;15.10;62.70
13569;DHT22;6856;51.460;7.158;2023-03-23T06:47:17;15.10;63.00
13569;DHT22;6856;51.460;7.158;2023-03-23T06:49:50;15.10;62.80
13569;DHT22;6856;51.460;7.158;2023-03-23T06:52:23;15.20;63.00
13569;DHT22;6856;51.460;7.158;2023-03-23T06:54:56;15.20;62.90
13569;DHT22;6856;51.460;7.158;2023-03-23T06:57:30;15.20;62.50
13569;DHT22;6856;51.460;7.158;2023-03-23T07:00:03;15.20;62.70
13569;DHT22;6856;51.460;7.158;2023-03-23T07:02:44;15.20;62.70
13569;DHT22;6856;51.460;7.158;2023-03-23T07:05:17;15.20;62.70
13569;DHT22;6856;51.460;7.158;2023-03-23T07:07:50;15.30;62.70
13569;DHT22;6856;51.460;7.158;2023-03-23T07:10:23;15.00;62.30
13569;DHT22;6856;51.460;7.158;2023-03-23T07:13:01;15.30;62.40
13569;DHT22;6856;51.460;7.158;2023-03-23T07:15:35;15.30;62.70
13569;DHT22;6856;51.460;7.158;2023-03-23T07:18:07;15.30;62.30
13569;DHT22;6856;51.460;7.158;2023-03-23T07:20:40;15.10;62.10
13569;DHT22;6856;51.460;7.158;2023-03-23T07:23:13;15.30;62.10
13569;DHT22;6856;51.460;7.158;2023-03-23T07:25:47;15.30;61.90
13569;DHT22;6856;51.460;7.158;2023-03-23T07:28:21;15.40;61.90
13569;DHT22;6856;51.460;7.158;2023-03-23T07:30:54;15.40;62.00
13569;DHT22;6856;51.460;7.158;2023-03-23T07:33:27;15.40;61.70
13569;DHT22;6856;51.460;7.158;2023-03-23T07:36:01;15.40;61.90
13569;DHT22;6856;51.460;7.158;2023-03-23T07:38:34;15.40;61.70
13569;DHT22;6856;51.460;7.158;2023-03-23T07:41:06;15.50;61.50
13569;DHT22;6856;51.460;7.158;2023-03-23T07:43:41;15.50;61.50
13569;DHT22;6856;51.460;7.158;2023-03-23T07:46:13;15.50;61.30
13569;DHT22;6856;51.460;7.158;2023-03-23T07:48:46;15.50;61.30
13569;DHT22;6856;51.460;7.158;2023-03-23T07:51:19;15.50;61.20
13569;DHT22;6856;51.460;7.158;2023-03-23T07:53:52;15.50;61.10
13569;DHT22;6856;51.460;7.158;2023-03-23T07:56:29;15.30;60.90
13569;DHT22;6856;51.460;7.158;2023-03-23T07:59:06;15.50;61.10
13569;DHT22;6856;51.460;7.158;2023-03-23T08:01:40;15.50;61.10
13569;DHT22;6856;51.460;7.158;2023-03-23T08:04:13;15.50;60.90
13569;DHT22;6856;51.460;7.158;2023-03-23T08:06:46;15.50;60.80
13569;DHT22;6856;51.460;7.158;2023-03-23T08:09:19;15.50;60.90
13569;DHT22;6856;51.460;7.158;2023-03-23T08:11:52;15.60;60.90
13569;DHT22;6856;51.460;7.158;2023-03-23T08:14:26;15.60;60.70
13569;DHT22;6856;51.460;7.158;2023-03-23T08:16:59;15.60;60.60
13569;DHT22;6856;51.460;7.158;2023-03-23T08:19:37;15.60;60.60
13569;DHT22;6856;51.460;7.158;2023-03-23T08:22:11;15.60;60.70
13569;DHT22;6856;51.460;7.158;2023-03-23T08:24:44;15.60;60.70
13569;DHT22;6856;51.460;7.158;2023-03-23T08:27:16;15.60;60.50
13569;DHT22;6856;51.460;7.158;2023-03-23T08:29:53;15.60;60.50
13569;DHT22;6856;51.460;7.158;2023-03-23T08:32:26;15.60;60.40
13569;DHT22;6856;51.460;7.158;2023-03-23T08:35:00;15.30;60.10
13569;DHT22;6856;51.460;7.158;2023-03-23T08:37:32;15.70;60.20
13569;DHT22;6856;51.460;7.158;2023-03-23T08:40:06;15.70;60.50
13569;DHT22;6856;51.460;7.158;2023-03-23T08:42:42;15.70;60.40
13569;DHT22;6856;51.460;7.158;2023-03-23T08:45:20;15.80;60.20
13569;DHT22;6856;51.460;7.158;2023-03-23T08:47:54;15.80;60.00
13569;DHT22;6856;51.460;7.158;2023-03-23T08:50:28;15.80;60.10
13569;DHT22;6856;51.460;7.158;2023-03-23T08:53:01;15.80;60.00
13569;DHT22;6856;51.460;7.158;2023-03-23T08:55:34;15.90;60.00
13569;DHT22;6856;51.460;7.158;2023-03-23T08:58:07;15.90;59.90
13569;DHT22;6856;51.460;7.158;2023-03-23T09:00:41;15.90;59.90
13569;DHT22;6856;51.460;7.158;2023-03-23T09:03:13;16.00;59.70
13569;DHT22;6856;51.460;7.158;2023-03-23T09:05:46;16.00;59.90
13569;DHT22;6856;51.460;7.158;2023-03-23T09:08:19;16.00;59.50
13569;DHT22;6856;51.460;7.158;2023-03-23T09:10:53;16.10;59.60
13569;DHT22;6856;51.460;7.158;2023-03-23T09:13:26;16.10;59.50
13569;DHT22;6856;51.460;7.158;2023-03-23T09:16:04;16.10;59.40
13569;DHT22;6856;51.460;7.158;2023-03-23T09:18:38;16.20;59.30
13569;DHT22;6856;51.460;7.158;2023-03-23T09:21:12;16.20;59.10
13569;DHT22;6856;51.460;7.158;2023-03-23T09:23:44;16.20;58.80
13569;DHT22;6856;51.460;7.158;2023-03-23T09:26:17;16.20;59.00
13569;DHT22;6856;51.460;7.158;2023-03-23T09:28:51;16.20;58.90
13569;DHT22;6856;51.460;7.158;2023-03-23T09:31:28;16.20;59.00
13569;DHT22;6856;51.460;7.158;2023-03-23T09:34:02;16.20;58.50
13569;DHT22;6856;51.460;7.158;2023-03-23T09:36:35;16.20;58.60
13569;DHT22;6856;51.460;7.158;2023-03-23T09:39:09;16.20;58.70
13569;DHT22;6856;51.460;7.158;2023-03-23T09:42:07;16.20;58.60
13569;DHT22;6856;51.460;7.158;2023-03-23T09:44:57;16.20;58.50
13569;DHT22;6856;51.460;7.158;2023-03-23T09:47:46;16.20;58.70
13569;DHT22;6856;51.460;7.158;2023-03-23T09:50:28;16.20;58.50
13569;DHT22;6856;51.460;7.158;2023-03-23T09:53:10;16.20;58.60
13569;DHT22;6856;51.460;7.158;2023-03-23T09:55:48;16.20;58.50
13569;DHT22;6856;51.460;7.158;2023-03-23T09:58:27;16.20;58.60
13569;DHT22;6856;51.460;7.158;2023-03-23T10:01:08;16.20;58.50
13569;DHT22;6856;51.460;7.158;2023-03-23T10:03:48;16.20;58.60
13569;DHT22;6856;51.460;7.158;2023-03-23T10:06:24;16.20;58.60
13569;DHT22;6856;51.460;7.158;2023-03-23T10:08:59;16.20;58.70
13569;DHT22;6856;51.460;7.158;2023-03-23T10:11:43;16.20;58.90
13569;DHT22;6856;51.460;7.158;2023-03-23T10:14:33;16.20;59.10
13569;DHT22;6856;51.460;7.158;2023-03-23T10:17:17;16.20;59.40
13569;DHT22;6856;51.460;7.158;2023-03-23T10:20:21;16.10;59.20
13569;DHT22;6856;51.460;7.158;2023-03-23T10:23:09;16.00;58.90
13569;DHT22;6856;51.460;7.158;2023-03-23T10:26:11;15.90;58.80
13569;DHT22;6856;51.460;7.158;2023-03-23T10:28:54;15.70;59.10
13569;DHT22;6856;51.460;7.158;2023-03-23T10:31:32;15.60;59.50
13569;DHT22;6856;51.460;7.158;2023-03-23T10:34:12;15.50;60.00
13569;DHT22;6856;51.460;7.158;2023-03-23T10:37:03;15.30;60.40
13569;DHT22;6856;51.460;7.158;2023-03-23T10:39:47;15.30;60.80
13569;DHT22;6856;51.460;7.158;2023-03-23T10:42:27;15.20;60.80
13569;DHT22;6856;51.460;7.158;2023-03-23T10:45:13;15.10;60.90
13569;DHT22;6856;51.460;7.158;2023-03-23T10:47:53;15.00;61.40
13569;DHT22;6856;51.460;7.158;2023-03-23T10:50:30;14.90;61.80
13569;DHT22;6856;51.460;7.158;2023-03-23T10:53:14;14.90;61.70
13569;DHT22;6856;51.460;7.158;2023-03-23T10:55:53;14.90;62.40
13569;DHT22;6856;51.460;7.158;2023-03-23T10:58:27;14.80;62.30
13569;DHT22;6856;51.460;7.158;2023-03-23T11:01:14;14.80;62.50
13569;DHT22;6856;51.460;7.158;2023-03-23T11:03:52;14.80;62.80
13569;DHT22;6856;51.460;7.158;2023-03-23T11:06:27;14.60;62.90
13569;DHT22;6856;51.460;7.158;2023-03-23T11:09:11;14.80;63.90
13569;DHT22;6856;51.460;7.158;2023-03-23T11:11:49;14.80;64.10
13569;DHT22;6856;51.460;7.158;2023-03-23T11:14:25;14.80;63.50
13569;DHT22;6856;51.460;7.158;2023-03-23T11:17:01;14.80;63.20
13569;DHT22;6856;51.460;7.158;2023-03-23T11:19:36;14.80;62.80
13569;DHT22;6856;51.460;7.158;2023-03-23T11:22:17;14.70;62.60
13569;DHT22;6856;51.460;7.158;2023-03-23T11:25:00;14.60;62.70
13569;DHT22;6856;51.460;7.158;2023-03-23T11:27:37;14.60;62.90
13569;DHT22;6856;51.460;7.158;2023-03-23T11:30:20;14.60;62.90
13569;DHT22;6856;51.460;7.158;2023-03-23T11:32:59;14.50;63.10
13569;DHT22;6856;51.460;7.158;2023-03-23T11:35:34;14.50;63.20
13569;DHT22;6856;51.460;7.158;2023-03-23T11:38:16;14.50;63.30
13569;DHT22;6856;51.460;7.158;2023-03-23T11:40:54;14.20;63.70
13569;DHT22;6856;51.460;7.158;2023-03-23T11:43:27;14.40;63.80
13569;DHT22;6856;51.460;7.158;2023-03-23T11:46:04;14.40;64.10
13569;DHT22;6856;51.460;7.158;2023-03-23T11:48:50;14.00;64.00
13569;DHT22;6856;51.460;7.158;2023-03-23T11:51:33;14.40;64.30
13569;DHT22;6856;51.460;7.158;2023-03-23T11:54:15;14.40;64.20
13569;DHT22;6856;51.460;7.158;2023-03-23T11:56:52;14.30;64.30
13569;DHT22;6856;51.460;7.158;2023-03-23T11:59:28;14.30;64.30
13569;DHT22;6856;51.460;7.158;2023-03-23T12:02:18;14.30;64.60
13569;DHT22;6856;51.460;7.158;2023-03-23T12:05:32;14.30;65.00
13569;DHT22;6856;51.460;7.158;2023-03-23T12:08:34;14.30;65.60
13569;DHT22;6856;51.460;7.158;2023-03-23T12:11:32;14.30;65.80
13569;DHT22;6856;51.460;7.158;2023-03-23T12:14:20;14.30;65.70
13569;DHT22;6856;51.460;7.158;2023-03-23T12:17:09;14.40;65.90
13569;DHT22;6856;51.460;7.158;2023-03-23T12:20:02;14.40;66.00
13569;DHT22;6856;51.460;7.158;2023-03-23T12:22:55;14.50;66.10
13569;DHT22;6856;51.460;7.158;2023-03-23T12:25:51;14.50;65.80
13569;DHT22;6856;51.460;7.158;2023-03-23T12:28:58;14.50;65.70
13569;DHT22;6856;51.460;7.158;2023-03-23T12:31:51;14.50;65.70
13569;DHT22;6856;51.460;7.158;2023-03-23T12:34:38;14.50;65.70
13569;DHT22;6856;51.460;7.158;2023-03-23T12:37:25;14.50;65.70
13569;DHT22;6856;51.460;7.158;2023-03-23T12:40:20;14.50;65.80
13569;DHT22;6856;51.460;7.158;2023-03-23T12:43:20;14.50;66.50
13569;DHT22;6856;51.460;7.158;2023-03-23T12:46:31;14.50;65.80
13569;DHT22;6856;51.460;7.158;2023-03-23T12:49:19;14.50;66.20
13569;DHT22;6856;51.460;7.158;2023-03-23T12:52:00;14.50;66.10
13569;DHT22;6856;51.460;7.158;2023-03-23T12:54:49;14.50;66.20
13569;DHT22;6856;51.460;7.158;2023-03-23T12:57:29;14.50;66.30
13569;DHT22;6856;51.460;7.158;2023-03-23T13:00:14;14.50;66.50
13569;DHT22;6856;51.460;7.158;2023-03-23T13:02:58;14.50;66.90
13569;DHT22;6856;51.460;7.158;2023-03-23T13:05:42;14.50;67.00
13569;DHT22;6856;51.460;7.158;2023-03-23T13:08:28;14.60;67.40
13569;DHT22;6856;51.460;7.158;2023-03-23T13:11:10;14.50;67.10
13569;DHT22;6856;51.460;7.158;2023-03-23T13:13:50;14.60;66.90
13569;DHT22;6856;51.460;7.158;2023-03-23T13:16:32;14.60;67.10
13569;DHT22;6856;51.460;7.158;2023-03-23T13:19:18;14.60;67.50
13569;DHT22;6856;51.460;7.158;2023-03-23T13:22:04;14.70;67.60
13569;DHT22;6856;51.460;7.158;2023-03-23T13:24:46;14.70;67.30
13569;DHT22;6856;51.460;7.158;2023-03-23T13:27:28;14.70;67.10
13569;DHT22;6856;51.460;7.158;2023-03-23T13:30:01;14.70;67.00
13569;DHT22;6856;51.460;7.158;2023-03-23T13:32:37;14.70;67.10
13569;DHT22;6856;51.460;7.158;2023-03-23T13:35:13;14.70;66.70
13569;DHT22;6856;51.460;7.158;2023-03-23T13:37:52;14.70;67.20
13569;DHT22;6856;51.460;7.158;2023-03-23T13:40:27;14.80;67.20
13569;DHT22;6856;51.460;7.158;2023-03-23T13:43:02;14.80;67.40
13569;DHT22;6856;51.460;7.158;2023-03-23T13:45:43;14.80;67.50
13569;DHT22;6856;51.460;7.158;2023-03-23T13:48:21;14.90;67.90
13569;DHT22;6856;51.460;7.158;2023-03-23T13:50:57;14.90;67.70
13569;DHT22;6856;51.460;7.158;2023-03-23T13:53:45;15.00;67.80
13569;DHT22;6856;51.460;7.158;2023-03-23T13:56:21;15.00;67.80
13569;DHT22;6856;51.460;7.158;2023-03-23T13:59:14;15.00;67.50
13569;DHT22;6856;51.460;7.158;2023-03-23T14:01:49;15.10;67.60
13569;DHT22;6856;51.460;7.158;2023-03-23T14:04:30;15.10;67.60
13569;DHT22;6856;51.460;7.158;2023-03-23T14:07:10;15.20;67.60
13569;DHT22;6856;51.460;7.158;2023-03-23T14:09:45;15.20;67.50
13569;DHT22;6856;51.460;7.158;2023-03-23T14:12:22;15.30;67.40
13569;DHT22;6856;51.460;7.158;2023-03-23T14:15:02;15.20;67.40
13569;DHT22;6856;51.460;7.158;2023-03-23T14:17:41;15.30;67.70
13569;DHT22;6856;51.460;7.158;2023-03-23T14:20:26;15.30;67.70
13569;DHT22;6856;51.460;7.158;2023-03-23T14:23:04;15.30;68.20
13569;DHT22;6856;51.460;7.158;2023-03-23T14:25:41;15.40;68.20
13569;DHT22;6856;51.460;7.158;2023-03-23T14:28:19;15.50;68.30
13569;DHT22;6856;51.460;7.158;2023-03-23T14:30:53;15.50;68.40
13569;DHT22;6856;51.460;7.158;2023-03-23T14:33:28;15.60;68.40
13569;DHT22;6856;51.460;7.158;2023-03-23T14:36:03;15.60;68.30
13569;DHT22;6856;51.460;7.158;2023-03-23T14:38:36;15.70;68.30
13569;DHT22;6856;51.460;7.158;2023-03-23T14:41:12;15.70;68.20
13569;DHT22;6856;51.460;7.158;2023-03-23T14:43:45;15.80;68.20
13569;DHT22;6856;51.460;7.158;2023-03-23T14:46:18;15.80;68.30
13569;DHT22;6856;51.460;7.158;2023-03-23T14:48:52;15.90;68.60
13569;DHT22;6856;51.460;7.158;2023-03-23T14:51:25;15.90;68.50
13569;DHT22;6856;51.460;7.158;2023-03-23T14:53:59;16.00;68.60
13569;DHT22;6856;51.460;7.158;2023-03-23T14:56:36;16.10;68.80
13569;DHT22;6856;51.460;7.158;2023-03-23T14:59:10;16.20;68.20
13569;DHT22;6856;51.460;7.158;2023-03-23T15:01:43;16.20;68.30
13569;DHT22;6856;51.460;7.158;2023-03-23T15:04:21;16.30;68.00
13569;DHT22;6856;51.460;7.158;2023-03-23T15:07:00;16.30;67.50
13569;DHT22;6856;51.460;7.158;2023-03-23T15:09:39;16.40;67.00
13569;DHT22;6856;51.460;7.158;2023-03-23T15:12:23;16.40;66.60
13569;DHT22;6856;51.460;7.158;2023-03-23T15:15:02;16.40;65.80
13569;DHT22;6856;51.460;7.158;2023-03-23T15:17:37;16.40;66.20
13569;DHT22;6856;51.460;7.158;2023-03-23T15:20:18;16.40;66.00
13569;DHT22;6856;51.460;7.158;2023-03-23T15:22:54;16.40;66.00
13569;DHT22;6856;51.460;7.158;2023-03-23T15:25:30;16.40;65.80
13569;DHT22;6856;51.460;7.158;2023-03-23T15:28:17;16.40;66.00
13569;DHT22;6856;51.460;7.158;2023-03-23T15:30:53;16.40;66.00
13569;DHT22;6856;51.460;7.158;2023-03-23T15:33:34;16.30;66.00
13569;DHT22;6856;51.460;7.158;2023-03-23T15:36:14;16.60;66.10
13569;DHT22;6856;51.460;7.158;2023-03-23T15:38:49;16.60;65.90
13569;DHT22;6856;51.460;7.158;2023-03-23T15:41:23;16.70;65.50
13569;DHT22;6856;51.460;7.158;2023-03-23T15:44:10;16.70;65.20
13569;DHT22;6856;51.460;7.158;2023-03-23T15:46:51;16.70;64.60
13569;DHT22;6856;51.460;7.158;2023-03-23T15:49:34;16.80;64.30
13569;DHT22;6856;51.460;7.158;2023-03-23T15:52:09;16.90;64.10
13569;DHT22;6856;51.460;7.158;2023-03-23T15:54:47;16.90;64.00
13569;DHT22;6856;51.460;7.158;2023-03-23T15:57:20;16.90;63.70
13569;DHT22;6856;51.460;7.158;2023-03-23T15:59:56;16.90;63.40
13569;DHT22;6856;51.460;7.158;2023-03-23T16:02:29;16.70;62.90
13569;DHT22;6856;51.460;7.158;2023-03-23T16:05:05;17.00;63.00
13569;DHT22;6856;51.460;7.158;2023-03-23T16:07:40;17.00;63.50
13569;DHT22;6856;51.460;7.158;2023-03-23T16:10:16;17.00;62.50
13569;DHT22;6856;51.460;7.158;2023-03-23T16:12:52;17.00;62.50
13569;DHT22;6856;51.460;7.158;2023-03-23T16:15:27;17.00;62.30
13569;DHT22;6856;51.460;7.158;2023-03-23T16:18:00;17.00;62.20
13569;DHT22;6856;51.460;7.158;2023-03-23T16:20:35;17.10;62.00
13569;DHT22;6856;51.460;7.158;2023-03-23T16:23:09;17.00;61.70
13569;DHT22;6856;51.460;7.158;2023-03-23T16:25:43;17.00;61.90
13569;DHT22;6856;51.460;7.158;2023-03-23T16:28:17;17.00;61.90
13569;DHT22;6856;51.460;7.158;2023-03-23T16:30:53;17.00;62.00
13569;DHT22;6856;51.460;7.158;2023-03-23T16:33:27;17.00;62.00
13569;DHT22;6856;51.460;7.158;2023-03-23T16:36:02;17.00;62.00
13569;DHT22;6856;51.460;7.158;2023-03-23T16:38:37;17.00;62.80
13569;DHT22;6856;51.460;7.158;2023-03-23T16:41:21;17.00;62.00
13569;DHT22;6856;51.460;7.158;2023-03-23T16:43:55;17.10;62.00
13569;DHT22;6856;51.460;7.158;2023-03-23T16:46:31;17.00;61.90
13569;DHT22;6856;51.460;7.158;2023-03-23T16:49:05;17.10;62.10
13569;DHT22;6856;51.460;7.158;2023-03-23T16:51:39;17.10;61.90